Estación de Combarbala

Ultimos registro cada 15 minutos 92
Estación Fecha / Hora Temperatura Humedad Lluvia Velocidad Dirección Radiación Presion
92 Combarbala 04-09-2026 22:45 11,2 69,4 0 0 128 0,6 911,1
91 Combarbala 04-09-2026 22:30 11,9 66,5 0 0 128 0,6 911,1
90 Combarbala 04-09-2026 22:15 12,2 65 0 0 128 0,6 911,1
89 Combarbala 04-09-2026 22:00 12,1 66,6 0 0 128 0,6 911,1
88 Combarbala 04-09-2026 21:45 12,1 67,3 0 0 128 0,6 911
87 Combarbala 04-09-2026 21:30 12,5 65,7 0 0 128 0,6 911,1
86 Combarbala 04-09-2026 21:15 12,6 64,3 0 0 128 0,6 911,2
85 Combarbala 04-09-2026 21:00 12,6 62,9 0 0 128 0,6 911,1
84 Combarbala 04-09-2026 20:45 12,7 63,5 0 0 128 0,6 911,3
83 Combarbala 04-09-2026 20:30 13 62,5 0 0 128 0,6 911,4
82 Combarbala 04-09-2026 20:15 13,1 62,6 0 0 128 0,6 911,1
81 Combarbala 04-09-2026 20:00 13,4 61,3 0 0 128 0,6 911,1
80 Combarbala 04-09-2026 19:45 13,9 59,4 0 0 128 0,6 911
79 Combarbala 04-09-2026 19:30 14,3 57,9 0 0,5 128 0,6 911
78 Combarbala 04-09-2026 19:15 14,5 58,1 0 0,5 128 0,6 911
77 Combarbala 04-09-2026 19:00 15,3 54,8 0 0,5 178 0,6 910,7
76 Combarbala 04-09-2026 18:45 15,9 50,8 0 1,5 218 0,6 910,8
75 Combarbala 04-09-2026 18:30 16,2 50,9 0 2 218 4,4 910,5
74 Combarbala 04-09-2026 18:15 16,7 49,2 0 2,5 219 19,4 910,5
73 Combarbala 04-09-2026 18:00 17,4 48,2 0 2,5 219 53,1 910,2
72 Combarbala 04-09-2026 17:45 18,4 45,6 0 2,5 218 110,6 910,1
71 Combarbala 04-09-2026 17:30 18,4 44,9 0 2 220 113,1 910,2
70 Combarbala 04-09-2026 17:15 19,3 41,9 0 2 220 103,1 910
69 Combarbala 04-09-2026 17:00 20,4 37,9 0 1,5 220 171,9 909,9
68 Combarbala 04-09-2026 16:45 21,3 35,8 0 1,5 223 146,9 909,8
67 Combarbala 04-09-2026 16:30 21,4 36,4 0 1,5 239 396,9 909,9
66 Combarbala 04-09-2026 16:15 22,2 34,9 0 1 246 356,9 909,7
65 Combarbala 04-09-2026 16:00 22,9 30,8 0 1 254 295,6 909,7
64 Combarbala 04-09-2026 15:45 23,7 28,2 0 1 240 530,6 909,5
63 Combarbala 04-09-2026 15:30 22,5 34,9 0 1,5 240 515,6 909,6
62 Combarbala 04-09-2026 15:15 23,2 34 0 1,5 236 543,1 909,6
61 Combarbala 04-09-2026 15:00 23,4 34,5 0 1,5 237 574,4 909,7
60 Combarbala 04-09-2026 14:45 24 34,5 0 1,5 240 436,9 909,7
59 Combarbala 04-09-2026 14:30 23,9 33,1 0 1,5 270 760,6 909,5
58 Combarbala 04-09-2026 14:15 23,2 33,2 0 1 268 546,9 909,8
57 Combarbala 04-09-2026 14:00 23,7 30 0 1 282 604,4 910
56 Combarbala 04-09-2026 13:45 24,2 29,5 0 1 323 649,4 910,2
55 Combarbala 04-09-2026 13:30 24,8 24,6 0 1 240 768,1 910,1
54 Combarbala 04-09-2026 13:15 23,7 30,6 0 1 354 694,4 910,2
53 Combarbala 04-09-2026 13:00 24,4 26,9 0 0,5 331 744,4 910,5
52 Combarbala 04-09-2026 12:45 23,8 29,4 0 0,5 7 768,1 910,7
51 Combarbala 04-09-2026 12:30 22 30,6 0 1 10 766,9 910,7
50 Combarbala 04-09-2026 12:15 22,8 29,5 0 0,5 323 766,9 911
49 Combarbala 04-09-2026 12:00 22,6 30,3 0 0,5 288 770,6 911
48 Combarbala 04-09-2026 11:45 21,7 28,3 0 1 299 758,1 911,1
47 Combarbala 04-09-2026 11:30 22,4 29,2 0 0,5 293 645,6 911,2
46 Combarbala 04-09-2026 11:15 21,6 31,6 0 0,5 306 603,1 911,3
45 Combarbala 04-09-2026 11:00 21,7 33,5 0 0,5 292 681,9 911,3
44 Combarbala 04-09-2026 10:45 20,8 35,9 0 0,5 336 635,6 911,2
43 Combarbala 04-09-2026 10:30 19,9 35,2 0 0,5 350 410,6 911,5
42 Combarbala 04-09-2026 10:15 20,5 34 0 0,5 336 589,4 911,4
41 Combarbala 04-09-2026 10:00 20,4 37,8 0 0,5 293 549,4 911,5
40 Combarbala 04-09-2026 09:45 19,9 39 0 0 206 506,9 911,5
39 Combarbala 04-09-2026 09:30 18 43,6 0 0,5 150 461,9 911,7
38 Combarbala 04-09-2026 09:15 19 44,2 0 0 124 414,4 911,6
37 Combarbala 04-09-2026 09:00 18,5 46,5 0 0 124 366,9 911,7
36 Combarbala 04-09-2026 08:45 16,5 54,9 0 0 124 320,6 911,6
35 Combarbala 04-09-2026 08:30 15,4 57,1 0 0 124 269,4 911,7
34 Combarbala 04-09-2026 08:15 14,1 64,3 0 0 124 218,1 911,9
33 Combarbala 04-09-2026 08:00 13,6 63,1 0 0 124 171,9 911,8
32 Combarbala 04-09-2026 07:45 12,3 66,4 0 0 124 111,9 912
31 Combarbala 04-09-2026 07:30 10,3 70,1 0 0 124 13,1 912,2
30 Combarbala 04-09-2026 07:15 10,5 69,7 0 0 124 6,9 912,1
29 Combarbala 04-09-2026 07:00 10,3 71,1 0 0 124 1,9 911,9
28 Combarbala 04-09-2026 06:45 10,1 72,5 0 0 124 0,6 911,9
27 Combarbala 04-09-2026 06:30 10,4 71,7 0 0 124 0,6 912
26 Combarbala 04-09-2026 06:15 10,9 68,9 0 0 124 0,6 912
25 Combarbala 04-09-2026 06:00 11 70,6 0 0 124 0,6 911,9
24 Combarbala 04-09-2026 05:45 11,1 70,9 0 0 124 0,6 911,9
23 Combarbala 04-09-2026 05:30 10,7 72,7 0 0 124 0,6 912
22 Combarbala 04-09-2026 05:15 11,5 69,8 0 0 124 0,6 912
21 Combarbala 04-09-2026 05:00 11,5 71,8 0 0 124 0,6 911,9
20 Combarbala 04-09-2026 04:45 11,4 70,5 0 0 124 0,6 911,9
19 Combarbala 04-09-2026 04:30 12,2 68,2 0 0 124 0,6 912,1
18 Combarbala 04-09-2026 04:15 12,5 66,5 0 0 124 0,6 912,1
17 Combarbala 04-09-2026 04:00 12,7 67,1 0 0 124 0,6 912,1
16 Combarbala 04-09-2026 03:45 12,8 67,7 0 0 124 0,6 912,3
15 Combarbala 04-09-2026 03:30 13,1 66,4 0 0 124 0,6 912,3
14 Combarbala 04-09-2026 03:15 12,4 70,8 0 0 124 0,6 912,5
13 Combarbala 04-09-2026 03:00 12,5 70,4 0 0 124 0,6 912,5
12 Combarbala 04-09-2026 02:45 13,2 67,2 0 0 124 0,6 912,6
11 Combarbala 04-09-2026 02:30 13,3 66,4 0 0,5 216 0,6 912,6
10 Combarbala 04-09-2026 02:15 12,8 68,9 0 0 233 0,6 913
9 Combarbala 04-09-2026 02:00 12,8 69,6 0 0 233 0,6 913
8 Combarbala 04-09-2026 01:45 13,3 67,9 0 0 233 0,6 913
7 Combarbala 04-09-2026 01:30 13,2 67,5 0 0 233 0,6 913,3
6 Combarbala 04-09-2026 01:15 13,4 66,5 0 0 233 0,6 913,5
5 Combarbala 04-09-2026 01:00 13,1 66,3 0 0 233 0,6 913,6
4 Combarbala 04-09-2026 00:45 13,1 67,4 0 0 233 0,6 913,6
3 Combarbala 04-09-2026 00:30 13,5 66,2 0 0 233 0,6 913,7
2 Combarbala 04-09-2026 00:15 13,3 65,1 0 0 233 0,6 913,8
1 Combarbala 04-09-2026 00:00 13,5 65,1 0 0 233 0,6 913,9